Itaquirai, Brazil
Current Conditions -  °F | °C
As of 3:00 AM on Saturday 01 Nov 2014 (Local Time) from SBCA Reporting Station
Clear Clear  
Wind Chill: 73°   Ceiling: Unl
Heat Index: 73°   Visibility: 6mi
Dew Point: 68°   Wind: 12mph
Humidity: 83%   Direction: 70°ENE
Pressure: 29.94"   Gusts: NA
Location:  23.47°S, 54.18°W
Report Text: SBCA 010600Z 07010KT CAVOK 23/20 Q1014
Loading
Personal Weather Stations






























Interactive Weather Map
Tropical Storm Tracking
New forecast layout! Learn more

10-Day Weather Forecast

Advertisements
Track Severe Weather on mobile